Weather Data

Pearl Creek Farm: 8878 N Farm Road 75, Walnut Grove MO 65770

<== Previous Day (Thursday 07 Apr 2016) | Next Day (Saturday 09 Apr 2016) ==>

Summary Precipitation Data For Friday 08 April 2016

ElementValueUnits
Precipitation0"
Notes(none)
SourcePearl Creek Farm

Summary Temperature Data For Friday 08 April 2016

ElementValueUnits
High Temperature63 oF
Low Temperature39 oF
Average Temperature51 oF
High Humidity63 %
Low Humidity26 %
Average Humidity42 %
SourceSpringfield-Branson National Airport (SGF)

Detail Temperature Data For Friday 08 April 2016

Date / TimeTemp (F)RH (%)Dew Pt (F)Report Date / TimeSource
2016-04-08 00:52:00 43 53 27.0 2017-12-29 17:00:26.17417 Springfield-Branson National Airport (SGF)
2016-04-08 01:52:00 44 51 27.0 2017-12-29 17:00:26.17417 Springfield-Branson National Airport (SGF)
2016-04-08 02:52:00 39 62 27.0 2017-12-29 17:00:26.17417 Springfield-Branson National Airport (SGF)
2016-04-08 03:52:00 40 63 28.0 2017-12-29 17:00:26.17417 Springfield-Branson National Airport (SGF)
2016-04-08 04:52:00 41 57 27.0 2017-12-29 17:00:26.17417 Springfield-Branson National Airport (SGF)
2016-04-08 05:52:00 39 62 27.0 2017-12-29 17:00:26.17417 Springfield-Branson National Airport (SGF)
2016-04-08 06:52:00 42 58 28.0 2017-12-29 17:00:26.17417 Springfield-Branson National Airport (SGF)
2016-04-08 07:52:00 47 46 27.0 2017-12-29 17:00:26.17417 Springfield-Branson National Airport (SGF)
2016-04-08 08:52:00 50 41 27.0 2017-12-29 17:00:26.17417 Springfield-Branson National Airport (SGF)
2016-04-08 09:52:00 52 37 26.0 2017-12-29 17:00:26.17417 Springfield-Branson National Airport (SGF)
2016-04-08 10:52:00 56 34 28.0 2017-12-29 17:00:26.17417 Springfield-Branson National Airport (SGF)
2016-04-08 11:52:00 58 32 28.0 2017-12-29 17:00:26.17417 Springfield-Branson National Airport (SGF)
2016-04-08 12:52:00 59 31 28.0 2017-12-29 17:00:26.17417 Springfield-Branson National Airport (SGF)
2016-04-08 13:52:00 62 29 29.0 2017-12-29 17:00:26.17417 Springfield-Branson National Airport (SGF)
2016-04-08 14:52:00 62 26 27.0 2017-12-29 17:00:26.17417 Springfield-Branson National Airport (SGF)
2016-04-08 15:52:00 63 27 28.0 2017-12-29 17:00:26.17417 Springfield-Branson National Airport (SGF)
2016-04-08 16:52:00 62 28 28.0 2017-12-29 17:00:26.17417 Springfield-Branson National Airport (SGF)
2016-04-08 17:52:00 60 30 28.0 2017-12-29 17:00:26.17417 Springfield-Branson National Airport (SGF)
2016-04-08 18:52:00 53 40 29.0 2017-12-29 17:00:26.17417 Springfield-Branson National Airport (SGF)
2016-04-08 19:52:00 55 33 26.0 2017-12-29 17:00:26.17417 Springfield-Branson National Airport (SGF)
2016-04-08 20:52:00 51 41 28.0 2017-12-29 17:00:26.17417 Springfield-Branson National Airport (SGF)
2016-04-08 21:52:00 49 44 28.0 2017-12-29 17:00:26.17417 Springfield-Branson National Airport (SGF)
2016-04-08 22:52:00 48 48 29.0 2017-12-29 17:00:26.17417 Springfield-Branson National Airport (SGF)
2016-04-08 23:52:00 47 44 26.0 2017-12-29 17:00:26.17417 Springfield-Branson National Airport (SGF)

A total of 24 rows are displayed.